sensor_id;sensor_type;location;lat;lon;timestamp;temperature;humidity
9167;DHT22;4618;48.818;9.088;2023-07-31T00:01:20;16.00;1.00
9167;DHT22;4618;48.818;9.088;2023-07-31T00:03:46;16.00;1.00
9167;DHT22;4618;48.818;9.088;2023-07-31T00:06:12;15.90;1.00
9167;DHT22;4618;48.818;9.088;2023-07-31T00:08:37;16.00;1.00
9167;DHT22;4618;48.818;9.088;2023-07-31T00:11:03;16.00;1.00
9167;DHT22;4618;48.818;9.088;2023-07-31T00:13:28;16.00;1.00
9167;DHT22;4618;48.818;9.088;2023-07-31T00:15:54;16.10;1.00
9167;DHT22;4618;48.818;9.088;2023-07-31T00:18:20;15.90;1.00
9167;DHT22;4618;48.818;9.088;2023-07-31T00:20:45;15.90;1.00
9167;DHT22;4618;48.818;9.088;2023-07-31T00:23:11;16.00;1.00
9167;DHT22;4618;48.818;9.088;2023-07-31T00:25:36;16.00;1.00
9167;DHT22;4618;48.818;9.088;2023-07-31T00:28:02;16.00;1.00
9167;DHT22;4618;48.818;9.088;2023-07-31T00:30:28;15.80;1.00
9167;DHT22;4618;48.818;9.088;2023-07-31T00:32:53;15.80;1.00
9167;DHT22;4618;48.818;9.088;2023-07-31T00:35:19;15.80;1.00
9167;DHT22;4618;48.818;9.088;2023-07-31T00:37:44;15.70;1.00
9167;DHT22;4618;48.818;9.088;2023-07-31T00:40:10;15.70;1.00
9167;DHT22;4618;48.818;9.088;2023-07-31T00:42:35;15.70;1.00
9167;DHT22;4618;48.818;9.088;2023-07-31T00:45:01;15.80;1.00
9167;DHT22;4618;48.818;9.088;2023-07-31T00:47:27;15.80;1.00
9167;DHT22;4618;48.818;9.088;2023-07-31T00:49:52;15.60;8.80
9167;DHT22;4618;48.818;9.088;2023-07-31T00:52:19;15.50;99.90
9167;DHT22;4618;48.818;9.088;2023-07-31T00:54:45;15.40;99.90
9167;DHT22;4618;48.818;9.088;2023-07-31T00:57:11;15.30;99.90
9167;DHT22;4618;48.818;9.088;2023-07-31T00:59:36;15.10;1.00
9167;DHT22;4618;48.818;9.088;2023-07-31T01:02:02;15.00;1.00
9167;DHT22;4618;48.818;9.088;2023-07-31T01:04:29;15.00;1.00
9167;DHT22;4618;48.818;9.088;2023-07-31T01:07:20;15.00;1.00
9167;DHT22;4618;48.818;9.088;2023-07-31T01:10:01;15.00;1.00
9167;DHT22;4618;48.818;9.088;2023-07-31T01:12:29;14.90;1.00
9167;DHT22;4618;48.818;9.088;2023-07-31T01:17:28;15.00;1.00
9167;DHT22;4618;48.818;9.088;2023-07-31T01:19:55;15.00;1.00
9167;DHT22;4618;48.818;9.088;2023-07-31T01:25:45;14.90;1.00
9167;DHT22;4618;48.818;9.088;2023-07-31T01:28:15;14.90;1.00
9167;DHT22;4618;48.818;9.088;2023-07-31T01:30:45;15.00;1.00
9167;DHT22;4618;48.818;9.088;2023-07-31T01:33:16;15.20;99.90
9167;DHT22;4618;48.818;9.088;2023-07-31T01:35:44;15.20;99.90
9167;DHT22;4618;48.818;9.088;2023-07-31T01:38:11;15.30;99.90
9167;DHT22;4618;48.818;9.088;2023-07-31T01:40:37;15.40;99.90
9167;DHT22;4618;48.818;9.088;2023-07-31T01:43:02;15.50;87.70
9167;DHT22;4618;48.818;9.088;2023-07-31T01:45:28;15.50;1.00
9167;DHT22;4618;48.818;9.088;2023-07-31T01:47:54;15.50;1.00
9167;DHT22;4618;48.818;9.088;2023-07-31T01:50:19;15.50;1.00
9167;DHT22;4618;48.818;9.088;2023-07-31T01:52:45;15.60;1.00
9167;DHT22;4618;48.818;9.088;2023-07-31T01:55:10;15.60;1.00
9167;DHT22;4618;48.818;9.088;2023-07-31T01:57:37;15.70;1.00
9167;DHT22;4618;48.818;9.088;2023-07-31T02:00:03;15.80;1.00
9167;DHT22;4618;48.818;9.088;2023-07-31T02:02:28;15.70;1.00
9167;DHT22;4618;48.818;9.088;2023-07-31T02:04:54;15.70;1.00
9167;DHT22;4618;48.818;9.088;2023-07-31T02:07:20;15.70;1.00
9167;DHT22;4618;48.818;9.088;2023-07-31T02:09:45;15.70;1.00
9167;DHT22;4618;48.818;9.088;2023-07-31T02:12:13;15.70;1.00
9167;DHT22;4618;48.818;9.088;2023-07-31T02:14:40;15.70;99.90
9167;DHT22;4618;48.818;9.088;2023-07-31T02:17:06;15.80;99.90
9167;DHT22;4618;48.818;9.088;2023-07-31T02:19:31;15.80;99.90
9167;DHT22;4618;48.818;9.088;2023-07-31T02:21:57;15.80;99.90
9167;DHT22;4618;48.818;9.088;2023-07-31T02:24:24;15.70;99.90
9167;DHT22;4618;48.818;9.088;2023-07-31T02:26:49;15.60;99.90
9167;DHT22;4618;48.818;9.088;2023-07-31T02:29:15;15.60;99.90
9167;DHT22;4618;48.818;9.088;2023-07-31T02:31:40;15.70;99.90
9167;DHT22;4618;48.818;9.088;2023-07-31T02:34:06;15.80;99.90
9167;DHT22;4618;48.818;9.088;2023-07-31T02:36:31;15.70;99.90
9167;DHT22;4618;48.818;9.088;2023-07-31T02:38:57;15.70;99.90
9167;DHT22;4618;48.818;9.088;2023-07-31T02:41:23;15.50;1.00
9167;DHT22;4618;48.818;9.088;2023-07-31T02:43:48;15.40;1.00
9167;DHT22;4618;48.818;9.088;2023-07-31T02:46:14;15.40;1.00
9167;DHT22;4618;48.818;9.088;2023-07-31T02:48:39;15.40;1.00
9167;DHT22;4618;48.818;9.088;2023-07-31T02:51:05;15.40;1.00
9167;DHT22;4618;48.818;9.088;2023-07-31T02:53:30;15.40;1.00
9167;DHT22;4618;48.818;9.088;2023-07-31T02:55:56;15.40;1.00
9167;DHT22;4618;48.818;9.088;2023-07-31T02:58:21;15.50;1.00
9167;DHT22;4618;48.818;9.088;2023-07-31T03:00:47;15.50;99.90
9167;DHT22;4618;48.818;9.088;2023-07-31T03:03:12;15.40;99.90
9167;DHT22;4618;48.818;9.088;2023-07-31T03:05:38;15.40;99.90
9167;DHT22;4618;48.818;9.088;2023-07-31T03:08:04;15.40;99.90
9167;DHT22;4618;48.818;9.088;2023-07-31T03:10:29;15.50;99.90
9167;DHT22;4618;48.818;9.088;2023-07-31T03:12:55;15.50;99.90
9167;DHT22;4618;48.818;9.088;2023-07-31T03:15:20;15.50;99.90
9167;DHT22;4618;48.818;9.088;2023-07-31T03:17:46;15.60;99.90
9167;DHT22;4618;48.818;9.088;2023-07-31T03:20:12;15.60;99.90
9167;DHT22;4618;48.818;9.088;2023-07-31T03:22:37;15.60;99.90
9167;DHT22;4618;48.818;9.088;2023-07-31T03:25:03;15.50;99.90
9167;DHT22;4618;48.818;9.088;2023-07-31T03:27:29;15.50;99.90
9167;DHT22;4618;48.818;9.088;2023-07-31T03:29:55;15.60;99.90
9167;DHT22;4618;48.818;9.088;2023-07-31T03:32:20;15.50;99.90
9167;DHT22;4618;48.818;9.088;2023-07-31T03:34:46;15.50;99.90
9167;DHT22;4618;48.818;9.088;2023-07-31T03:37:12;15.50;99.90
9167;DHT22;4618;48.818;9.088;2023-07-31T03:39:37;15.40;99.90
9167;DHT22;4618;48.818;9.088;2023-07-31T03:42:03;15.40;99.90
9167;DHT22;4618;48.818;9.088;2023-07-31T03:44:29;15.50;99.90
9167;DHT22;4618;48.818;9.088;2023-07-31T03:46:54;15.50;99.90
9167;DHT22;4618;48.818;9.088;2023-07-31T03:49:20;15.50;99.90
9167;DHT22;4618;48.818;9.088;2023-07-31T03:51:46;15.50;99.90
9167;DHT22;4618;48.818;9.088;2023-07-31T03:54:11;15.50;99.90
9167;DHT22;4618;48.818;9.088;2023-07-31T03:56:38;15.50;99.90
9167;DHT22;4618;48.818;9.088;2023-07-31T03:59:04;15.50;99.90
9167;DHT22;4618;48.818;9.088;2023-07-31T04:01:30;15.60;99.90
9167;DHT22;4618;48.818;9.088;2023-07-31T04:03:55;15.70;99.90
9167;DHT22;4618;48.818;9.088;2023-07-31T04:06:21;15.60;99.90
9167;DHT22;4618;48.818;9.088;2023-07-31T04:08:46;15.70;99.90
9167;DHT22;4618;48.818;9.088;2023-07-31T04:11:12;15.70;99.90
9167;DHT22;4618;48.818;9.088;2023-07-31T04:13:38;15.80;59.60
9167;DHT22;4618;48.818;9.088;2023-07-31T04:16:04;15.70;97.40
9167;DHT22;4618;48.818;9.088;2023-07-31T04:18:29;15.80;12.10
9167;DHT22;4618;48.818;9.088;2023-07-31T04:20:56;15.80;1.00
9167;DHT22;4618;48.818;9.088;2023-07-31T04:23:24;15.90;1.00
9167;DHT22;4618;48.818;9.088;2023-07-31T04:25:50;15.90;1.00
9167;DHT22;4618;48.818;9.088;2023-07-31T04:28:15;15.90;1.00
9167;DHT22;4618;48.818;9.088;2023-07-31T04:30:41;16.00;1.00
9167;DHT22;4618;48.818;9.088;2023-07-31T04:33:06;16.10;1.00
9167;DHT22;4618;48.818;9.088;2023-07-31T04:35:32;16.00;1.00
9167;DHT22;4618;48.818;9.088;2023-07-31T04:37:57;15.90;1.00
9167;DHT22;4618;48.818;9.088;2023-07-31T04:40:23;16.00;1.00
9167;DHT22;4618;48.818;9.088;2023-07-31T04:42:49;16.10;1.00
9167;DHT22;4618;48.818;9.088;2023-07-31T04:45:14;16.20;1.00
9167;DHT22;4618;48.818;9.088;2023-07-31T04:47:40;16.20;1.00
9167;DHT22;4618;48.818;9.088;2023-07-31T04:50:06;16.20;1.00
9167;DHT22;4618;48.818;9.088;2023-07-31T04:52:31;16.30;1.00
9167;DHT22;4618;48.818;9.088;2023-07-31T04:54:57;16.40;1.00
9167;DHT22;4618;48.818;9.088;2023-07-31T04:57:22;16.40;1.00
9167;DHT22;4618;48.818;9.088;2023-07-31T04:59:48;16.50;1.00
9167;DHT22;4618;48.818;9.088;2023-07-31T05:02:14;16.60;1.00
9167;DHT22;4618;48.818;9.088;2023-07-31T05:04:39;16.50;1.00
9167;DHT22;4618;48.818;9.088;2023-07-31T05:07:05;16.50;1.00
9167;DHT22;4618;48.818;9.088;2023-07-31T05:09:30;16.50;1.00
9167;DHT22;4618;48.818;9.088;2023-07-31T05:11:56;16.50;1.00
9167;DHT22;4618;48.818;9.088;2023-07-31T05:14:22;16.60;1.00
9167;DHT22;4618;48.818;9.088;2023-07-31T05:16:47;16.60;1.00
9167;DHT22;4618;48.818;9.088;2023-07-31T05:19:13;16.60;1.00
9167;DHT22;4618;48.818;9.088;2023-07-31T05:21:38;16.60;1.00
9167;DHT22;4618;48.818;9.088;2023-07-31T05:24:04;16.60;1.00
9167;DHT22;4618;48.818;9.088;2023-07-31T05:26:30;16.50;1.00
9167;DHT22;4618;48.818;9.088;2023-07-31T05:28:55;16.50;1.00
9167;DHT22;4618;48.818;9.088;2023-07-31T05:31:21;16.60;1.00
9167;DHT22;4618;48.818;9.088;2023-07-31T05:33:48;16.70;1.00
9167;DHT22;4618;48.818;9.088;2023-07-31T05:36:16;16.80;1.00
9167;DHT22;4618;48.818;9.088;2023-07-31T05:38:41;16.80;1.00
9167;DHT22;4618;48.818;9.088;2023-07-31T05:41:09;17.00;1.00
9167;DHT22;4618;48.818;9.088;2023-07-31T05:43:35;17.00;99.90
9167;DHT22;4618;48.818;9.088;2023-07-31T05:46:00;17.10;99.90
9167;DHT22;4618;48.818;9.088;2023-07-31T05:48:27;17.20;99.90
9167;DHT22;4618;48.818;9.088;2023-07-31T05:50:52;17.20;99.90
9167;DHT22;4618;48.818;9.088;2023-07-31T05:53:18;17.50;99.90
9167;DHT22;4618;48.818;9.088;2023-07-31T05:55:43;17.40;99.90
9167;DHT22;4618;48.818;9.088;2023-07-31T05:58:09;17.50;99.90
9167;DHT22;4618;48.818;9.088;2023-07-31T06:00:34;17.60;99.90
9167;DHT22;4618;48.818;9.088;2023-07-31T06:03:00;17.60;99.90
9167;DHT22;4618;48.818;9.088;2023-07-31T06:05:26;17.70;99.90
9167;DHT22;4618;48.818;9.088;2023-07-31T06:07:53;17.70;99.90
9167;DHT22;4618;48.818;9.088;2023-07-31T06:10:19;17.80;99.90
9167;DHT22;4618;48.818;9.088;2023-07-31T06:12:44;17.80;99.90
9167;DHT22;4618;48.818;9.088;2023-07-31T06:15:10;17.90;99.90
9167;DHT22;4618;48.818;9.088;2023-07-31T06:17:36;18.00;99.90
9167;DHT22;4618;48.818;9.088;2023-07-31T06:20:02;18.20;99.90
9167;DHT22;4618;48.818;9.088;2023-07-31T06:22:30;18.20;99.90
9167;DHT22;4618;48.818;9.088;2023-07-31T06:24:56;18.40;99.90
9167;DHT22;4618;48.818;9.088;2023-07-31T06:27:21;18.60;99.90
9167;DHT22;4618;48.818;9.088;2023-07-31T06:29:47;18.60;99.90
9167;DHT22;4618;48.818;9.088;2023-07-31T06:32:13;18.70;99.90
9167;DHT22;4618;48.818;9.088;2023-07-31T06:34:39;18.80;99.90
9167;DHT22;4618;48.818;9.088;2023-07-31T06:37:05;18.70;99.90
9167;DHT22;4618;48.818;9.088;2023-07-31T06:39:30;18.60;99.90
9167;DHT22;4618;48.818;9.088;2023-07-31T06:41:56;18.60;99.90
9167;DHT22;4618;48.818;9.088;2023-07-31T06:44:21;18.60;99.90
9167;DHT22;4618;48.818;9.088;2023-07-31T06:46:47;18.70;99.90
9167;DHT22;4618;48.818;9.088;2023-07-31T06:49:12;18.70;99.90
9167;DHT22;4618;48.818;9.088;2023-07-31T06:51:40;18.80;99.90
9167;DHT22;4618;48.818;9.088;2023-07-31T06:54:06;18.90;99.90
9167;DHT22;4618;48.818;9.088;2023-07-31T06:56:31;19.00;99.90
9167;DHT22;4618;48.818;9.088;2023-07-31T06:58:57;19.00;99.90
9167;DHT22;4618;48.818;9.088;2023-07-31T07:01:23;18.90;99.90
9167;DHT22;4618;48.818;9.088;2023-07-31T07:03:48;18.80;99.90
9167;DHT22;4618;48.818;9.088;2023-07-31T07:06:16;18.90;99.90
9167;DHT22;4618;48.818;9.088;2023-07-31T07:08:42;19.00;99.90
9167;DHT22;4618;48.818;9.088;2023-07-31T07:11:07;19.10;99.90
9167;DHT22;4618;48.818;9.088;2023-07-31T07:13:33;19.30;99.90
9167;DHT22;4618;48.818;9.088;2023-07-31T07:15:59;19.50;99.90
9167;DHT22;4618;48.818;9.088;2023-07-31T07:18:25;19.70;99.90
9167;DHT22;4618;48.818;9.088;2023-07-31T07:20:51;19.70;99.90
9167;DHT22;4618;48.818;9.088;2023-07-31T07:23:17;19.80;99.90
9167;DHT22;4618;48.818;9.088;2023-07-31T07:25:44;19.70;99.90
9167;DHT22;4618;48.818;9.088;2023-07-31T07:28:10;19.70;99.90
9167;DHT22;4618;48.818;9.088;2023-07-31T07:30:36;19.60;99.90
9167;DHT22;4618;48.818;9.088;2023-07-31T07:33:01;19.40;99.90
9167;DHT22;4618;48.818;9.088;2023-07-31T07:35:27;19.60;99.90
9167;DHT22;4618;48.818;9.088;2023-07-31T07:37:53;19.50;99.90
9167;DHT22;4618;48.818;9.088;2023-07-31T07:40:19;19.80;99.90
9167;DHT22;4618;48.818;9.088;2023-07-31T07:42:45;19.60;99.90
9167;DHT22;4618;48.818;9.088;2023-07-31T07:45:10;19.90;99.90
9167;DHT22;4618;48.818;9.088;2023-07-31T07:47:37;20.20;99.90
9167;DHT22;4618;48.818;9.088;2023-07-31T07:50:03;20.10;99.90
9167;DHT22;4618;48.818;9.088;2023-07-31T07:52:28;20.00;99.90
9167;DHT22;4618;48.818;9.088;2023-07-31T07:54:54;20.10;99.90
9167;DHT22;4618;48.818;9.088;2023-07-31T07:57:20;20.50;99.90
9167;DHT22;4618;48.818;9.088;2023-07-31T07:59:45;20.50;99.90
9167;DHT22;4618;48.818;9.088;2023-07-31T08:02:11;20.60;99.90
9167;DHT22;4618;48.818;9.088;2023-07-31T08:04:37;20.40;99.90
9167;DHT22;4618;48.818;9.088;2023-07-31T08:07:02;20.40;99.90
9167;DHT22;4618;48.818;9.088;2023-07-31T08:09:28;20.20;99.90
9167;DHT22;4618;48.818;9.088;2023-07-31T08:11:53;20.40;99.90
9167;DHT22;4618;48.818;9.088;2023-07-31T08:14:19;20.50;99.90
9167;DHT22;4618;48.818;9.088;2023-07-31T08:16:45;20.50;99.90
9167;DHT22;4618;48.818;9.088;2023-07-31T08:19:11;20.60;99.90
9167;DHT22;4618;48.818;9.088;2023-07-31T08:21:36;21.00;99.90
9167;DHT22;4618;48.818;9.088;2023-07-31T08:24:02;21.40;99.90
9167;DHT22;4618;48.818;9.088;2023-07-31T08:26:27;21.10;99.90
9167;DHT22;4618;48.818;9.088;2023-07-31T08:28:53;21.00;99.90
9167;DHT22;4618;48.818;9.088;2023-07-31T08:31:19;21.00;99.90
9167;DHT22;4618;48.818;9.088;2023-07-31T08:33:44;21.00;99.90
9167;DHT22;4618;48.818;9.088;2023-07-31T08:36:10;21.40;99.90
9167;DHT22;4618;48.818;9.088;2023-07-31T08:38:35;21.40;99.90
9167;DHT22;4618;48.818;9.088;2023-07-31T08:41:03;21.10;99.90
9167;DHT22;4618;48.818;9.088;2023-07-31T08:43:30;21.00;99.90
9167;DHT22;4618;48.818;9.088;2023-07-31T08:45:56;21.20;99.90
9167;DHT22;4618;48.818;9.088;2023-07-31T08:48:23;21.10;99.90
9167;DHT22;4618;48.818;9.088;2023-07-31T08:50:49;20.90;99.90
9167;DHT22;4618;48.818;9.088;2023-07-31T08:53:15;20.90;99.90
9167;DHT22;4618;48.818;9.088;2023-07-31T08:55:42;20.80;99.90
9167;DHT22;4618;48.818;9.088;2023-07-31T08:58:10;20.90;99.90
9167;DHT22;4618;48.818;9.088;2023-07-31T09:00:37;20.90;99.90
9167;DHT22;4618;48.818;9.088;2023-07-31T09:03:14;21.20;99.90
9167;DHT22;4618;48.818;9.088;2023-07-31T09:05:43;21.10;99.90
9167;DHT22;4618;48.818;9.088;2023-07-31T09:08:09;20.90;99.90
9167;DHT22;4618;48.818;9.088;2023-07-31T09:10:43;20.90;99.90
9167;DHT22;4618;48.818;9.088;2023-07-31T09:13:11;21.10;99.90
9167;DHT22;4618;48.818;9.088;2023-07-31T09:15:37;21.20;99.90
9167;DHT22;4618;48.818;9.088;2023-07-31T09:18:04;21.40;99.90
9167;DHT22;4618;48.818;9.088;2023-07-31T09:20:31;21.60;99.90
9167;DHT22;4618;48.818;9.088;2023-07-31T09:23:13;21.80;99.90
9167;DHT22;4618;48.818;9.088;2023-07-31T09:25:40;22.30;99.90
9167;DHT22;4618;48.818;9.088;2023-07-31T09:28:11;22.40;99.90
9167;DHT22;4618;48.818;9.088;2023-07-31T09:30:47;22.70;99.90
9167;DHT22;4618;48.818;9.088;2023-07-31T09:33:13;23.00;99.90
9167;DHT22;4618;48.818;9.088;2023-07-31T09:35:39;22.50;99.90
9167;DHT22;4618;48.818;9.088;2023-07-31T09:38:11;22.40;99.90
9167;DHT22;4618;48.818;9.088;2023-07-31T09:40:38;22.80;99.90
9167;DHT22;4618;48.818;9.088;2023-07-31T09:43:09;23.80;99.90
9167;DHT22;4618;48.818;9.088;2023-07-31T09:45:42;24.20;99.90
9167;DHT22;4618;48.818;9.088;2023-07-31T09:50:39;24.20;99.90
9167;DHT22;4618;48.818;9.088;2023-07-31T09:53:06;24.20;99.90
9167;DHT22;4618;48.818;9.088;2023-07-31T09:55:32;24.50;99.90
9167;DHT22;4618;48.818;9.088;2023-07-31T09:57:58;24.30;98.60
9167;DHT22;4618;48.818;9.088;2023-07-31T10:00:24;23.10;99.60
9167;DHT22;4618;48.818;9.088;2023-07-31T10:02:54;22.80;99.90
9167;DHT22;4618;48.818;9.088;2023-07-31T10:05:20;23.30;99.90
9167;DHT22;4618;48.818;9.088;2023-07-31T10:07:54;24.00;99.90
9167;DHT22;4618;48.818;9.088;2023-07-31T10:10:21;24.60;97.60
9167;DHT22;4618;48.818;9.088;2023-07-31T10:12:52;24.20;96.10
9167;DHT22;4618;48.818;9.088;2023-07-31T10:15:19;23.90;96.60
9167;DHT22;4618;48.818;9.088;2023-07-31T10:17:47;24.30;96.30
9167;DHT22;4618;48.818;9.088;2023-07-31T10:20:14;24.70;92.90
9167;DHT22;4618;48.818;9.088;2023-07-31T10:22:42;25.30;91.30
9167;DHT22;4618;48.818;9.088;2023-07-31T10:25:08;25.20;87.30
9167;DHT22;4618;48.818;9.088;2023-07-31T10:27:36;25.30;85.50
9167;DHT22;4618;48.818;9.088;2023-07-31T10:30:05;25.80;81.30
9167;DHT22;4618;48.818;9.088;2023-07-31T10:32:31;26.20;76.70
9167;DHT22;4618;48.818;9.088;2023-07-31T10:34:57;26.50;73.00
9167;DHT22;4618;48.818;9.088;2023-07-31T10:37:36;26.30;69.70
9167;DHT22;4618;48.818;9.088;2023-07-31T10:40:03;26.60;67.30
9167;DHT22;4618;48.818;9.088;2023-07-31T10:42:37;26.20;65.20
9167;DHT22;4618;48.818;9.088;2023-07-31T10:45:08;26.20;66.20
9167;DHT22;4618;48.818;9.088;2023-07-31T10:47:42;25.90;63.10
9167;DHT22;4618;48.818;9.088;2023-07-31T10:52:40;25.70;61.30
9167;DHT22;4618;48.818;9.088;2023-07-31T10:55:16;25.80;64.60
9167;DHT22;4618;48.818;9.088;2023-07-31T10:57:47;26.60;59.60
9167;DHT22;4618;48.818;9.088;2023-07-31T11:03:09;27.80;49.80
9167;DHT22;4618;48.818;9.088;2023-07-31T11:06:00;28.10;46.90
9167;DHT22;4618;48.818;9.088;2023-07-31T11:08:30;27.30;44.50
9167;DHT22;4618;48.818;9.088;2023-07-31T11:13:32;25.20;50.20
9167;DHT22;4618;48.818;9.088;2023-07-31T11:15:59;24.50;52.30
9167;DHT22;4618;48.818;9.088;2023-07-31T11:18:26;24.60;51.40
9167;DHT22;4618;48.818;9.088;2023-07-31T11:20:52;24.80;51.50
9167;DHT22;4618;48.818;9.088;2023-07-31T11:23:19;25.10;53.30
9167;DHT22;4618;48.818;9.088;2023-07-31T11:25:45;24.90;52.70
9167;DHT22;4618;48.818;9.088;2023-07-31T11:28:12;24.20;56.20
9167;DHT22;4618;48.818;9.088;2023-07-31T11:30:39;24.20;54.70
9167;DHT22;4618;48.818;9.088;2023-07-31T11:33:06;24.20;54.90
9167;DHT22;4618;48.818;9.088;2023-07-31T11:35:34;24.10;59.10
9167;DHT22;4618;48.818;9.088;2023-07-31T11:38:00;24.00;56.10
9167;DHT22;4618;48.818;9.088;2023-07-31T11:40:26;23.40;57.50
9167;DHT22;4618;48.818;9.088;2023-07-31T11:42:58;23.30;59.80
9167;DHT22;4618;48.818;9.088;2023-07-31T11:45:27;23.20;62.80
9167;DHT22;4618;48.818;9.088;2023-07-31T11:47:54;23.20;60.50
9167;DHT22;4618;48.818;9.088;2023-07-31T11:50:20;23.20;65.00
9167;DHT22;4618;48.818;9.088;2023-07-31T11:52:47;23.30;62.70
9167;DHT22;4618;48.818;9.088;2023-07-31T11:55:14;23.30;63.00
9167;DHT22;4618;48.818;9.088;2023-07-31T11:57:41;23.30;63.70
9167;DHT22;4618;48.818;9.088;2023-07-31T12:00:09;23.40;66.90
9167;DHT22;4618;48.818;9.088;2023-07-31T12:02:36;23.50;68.20
9167;DHT22;4618;48.818;9.088;2023-07-31T12:05:04;23.40;66.80
9167;DHT22;4618;48.818;9.088;2023-07-31T12:07:50;23.90;64.40
9167;DHT22;4618;48.818;9.088;2023-07-31T12:12:56;24.10;60.90
9167;DHT22;4618;48.818;9.088;2023-07-31T12:15:35;23.80;63.40
9167;DHT22;4618;48.818;9.088;2023-07-31T12:18:15;23.30;64.40
9167;DHT22;4618;48.818;9.088;2023-07-31T12:20:49;23.30;64.90
9167;DHT22;4618;48.818;9.088;2023-07-31T12:23:22;23.60;65.80
9167;DHT22;4618;48.818;9.088;2023-07-31T12:28:46;24.20;62.70
9167;DHT22;4618;48.818;9.088;2023-07-31T12:31:22;24.50;62.80
9167;DHT22;4618;48.818;9.088;2023-07-31T12:33:49;24.60;60.40
9167;DHT22;4618;48.818;9.088;2023-07-31T12:36:17;24.60;56.40
9167;DHT22;4618;48.818;9.088;2023-07-31T12:38:43;24.40;56.20
9167;DHT22;4618;48.818;9.088;2023-07-31T12:41:09;24.10;57.50
9167;DHT22;4618;48.818;9.088;2023-07-31T12:43:36;23.90;53.60
9167;DHT22;4618;48.818;9.088;2023-07-31T12:46:03;23.80;58.30
9167;DHT22;4618;48.818;9.088;2023-07-31T12:48:29;24.10;55.70
9167;DHT22;4618;48.818;9.088;2023-07-31T12:50:54;24.10;57.30
9167;DHT22;4618;48.818;9.088;2023-07-31T12:53:20;24.00;55.50
9167;DHT22;4618;48.818;9.088;2023-07-31T12:55:45;23.90;58.80
9167;DHT22;4618;48.818;9.088;2023-07-31T12:58:11;24.30;57.80
9167;DHT22;4618;48.818;9.088;2023-07-31T13:00:37;24.60;54.50
9167;DHT22;4618;48.818;9.088;2023-07-31T13:03:03;24.70;54.60
9167;DHT22;4618;48.818;9.088;2023-07-31T13:05:29;24.80;54.60
9167;DHT22;4618;48.818;9.088;2023-07-31T13:07:55;24.70;52.90
9167;DHT22;4618;48.818;9.088;2023-07-31T13:10:22;24.40;52.30
9167;DHT22;4618;48.818;9.088;2023-07-31T13:12:48;24.20;54.60
9167;DHT22;4618;48.818;9.088;2023-07-31T13:15:13;24.10;52.00
9167;DHT22;4618;48.818;9.088;2023-07-31T13:17:39;23.80;53.70
9167;DHT22;4618;48.818;9.088;2023-07-31T13:20:05;23.80;53.60
9167;DHT22;4618;48.818;9.088;2023-07-31T13:22:31;23.70;53.00
9167;DHT22;4618;48.818;9.088;2023-07-31T13:24:56;23.70;53.80
9167;DHT22;4618;48.818;9.088;2023-07-31T13:27:22;24.00;51.80
9167;DHT22;4618;48.818;9.088;2023-07-31T13:29:49;24.00;51.90
9167;DHT22;4618;48.818;9.088;2023-07-31T13:32:16;24.00;52.40
9167;DHT22;4618;48.818;9.088;2023-07-31T13:34:42;23.90;52.80
9167;DHT22;4618;48.818;9.088;2023-07-31T13:37:07;24.10;52.40
9167;DHT22;4618;48.818;9.088;2023-07-31T13:39:33;24.40;50.80
9167;DHT22;4618;48.818;9.088;2023-07-31T13:41:59;24.60;50.60
9167;DHT22;4618;48.818;9.088;2023-07-31T13:44:25;24.30;50.90
9167;DHT22;4618;48.818;9.088;2023-07-31T13:46:51;24.40;50.80
9167;DHT22;4618;48.818;9.088;2023-07-31T13:49:17;24.50;50.90
9167;DHT22;4618;48.818;9.088;2023-07-31T13:51:42;24.80;50.00
9167;DHT22;4618;48.818;9.088;2023-07-31T13:54:08;24.80;52.20
9167;DHT22;4618;48.818;9.088;2023-07-31T13:56:33;25.00;48.80
9167;DHT22;4618;48.818;9.088;2023-07-31T13:58:59;25.10;48.70
9167;DHT22;4618;48.818;9.088;2023-07-31T14:01:26;24.90;49.10
9167;DHT22;4618;48.818;9.088;2023-07-31T14:03:52;24.50;51.20
9167;DHT22;4618;48.818;9.088;2023-07-31T14:06:17;24.80;53.70
9167;DHT22;4618;48.818;9.088;2023-07-31T14:08:43;25.00;51.70
9167;DHT22;4618;48.818;9.088;2023-07-31T14:11:08;25.00;50.40
9167;DHT22;4618;48.818;9.088;2023-07-31T14:13:34;24.80;48.30
9167;DHT22;4618;48.818;9.088;2023-07-31T14:16:00;24.90;50.60
9167;DHT22;4618;48.818;9.088;2023-07-31T14:18:25;24.70;50.80
9167;DHT22;4618;48.818;9.088;2023-07-31T14:20:51;24.80;51.40
9167;DHT22;4618;48.818;9.088;2023-07-31T14:23:17;24.90;49.60
9167;DHT22;4618;48.818;9.088;2023-07-31T14:25:42;24.60;51.50
9167;DHT22;4618;48.818;9.088;2023-07-31T14:28:08;24.70;50.30
9167;DHT22;4618;48.818;9.088;2023-07-31T14:30:33;24.80;50.50
9167;DHT22;4618;48.818;9.088;2023-07-31T14:32:59;24.70;49.60
9167;DHT22;4618;48.818;9.088;2023-07-31T14:35:26;24.90;50.60
9167;DHT22;4618;48.818;9.088;2023-07-31T14:37:51;25.20;50.50
9167;DHT22;4618;48.818;9.088;2023-07-31T14:40:17;25.40;48.80
9167;DHT22;4618;48.818;9.088;2023-07-31T14:42:42;25.60;48.70
9167;DHT22;4618;48.818;9.088;2023-07-31T14:45:08;25.50;48.80
9167;DHT22;4618;48.818;9.088;2023-07-31T14:47:35;25.40;49.10
9167;DHT22;4618;48.818;9.088;2023-07-31T14:50:01;25.30;50.40
9167;DHT22;4618;48.818;9.088;2023-07-31T14:52:26;25.20;48.30
9167;DHT22;4618;48.818;9.088;2023-07-31T14:54:52;25.20;48.40
9167;DHT22;4618;48.818;9.088;2023-07-31T14:57:18;25.30;46.60
9167;DHT22;4618;48.818;9.088;2023-07-31T14:59:45;25.40;46.00
9167;DHT22;4618;48.818;9.088;2023-07-31T15:02:10;25.70;43.40
9167;DHT22;4618;48.818;9.088;2023-07-31T15:04:36;26.20;42.10
9167;DHT22;4618;48.818;9.088;2023-07-31T15:07:02;25.80;44.10
9167;DHT22;4618;48.818;9.088;2023-07-31T15:09:28;25.40;44.40
9167;DHT22;4618;48.818;9.088;2023-07-31T15:11:53;25.00;43.60
9167;DHT22;4618;48.818;9.088;2023-07-31T15:14:19;24.80;45.40
9167;DHT22;4618;48.818;9.088;2023-07-31T15:16:45;24.60;43.70
9167;DHT22;4618;48.818;9.088;2023-07-31T15:19:11;24.70;43.60
9167;DHT22;4618;48.818;9.088;2023-07-31T15:21:37;24.70;43.60
9167;DHT22;4618;48.818;9.088;2023-07-31T15:24:03;25.00;42.40
9167;DHT22;4618;48.818;9.088;2023-07-31T15:26:28;25.20;41.40
9167;DHT22;4618;48.818;9.088;2023-07-31T15:29:02;25.30;41.30
9167;DHT22;4618;48.818;9.088;2023-07-31T15:31:31;25.60;41.90
9167;DHT22;4618;48.818;9.088;2023-07-31T15:33:57;26.10;37.50
9167;DHT22;4618;48.818;9.088;2023-07-31T15:36:22;25.80;38.50
9167;DHT22;4618;48.818;9.088;2023-07-31T15:38:48;25.80;38.40
9167;DHT22;4618;48.818;9.088;2023-07-31T15:41:17;25.60;39.30
9167;DHT22;4618;48.818;9.088;2023-07-31T15:43:42;25.40;37.80
9167;DHT22;4618;48.818;9.088;2023-07-31T15:46:08;25.70;37.10
9167;DHT22;4618;48.818;9.088;2023-07-31T15:48:34;26.30;36.50
9167;DHT22;4618;48.818;9.088;2023-07-31T15:50:59;26.80;34.00
9167;DHT22;4618;48.818;9.088;2023-07-31T15:53:26;26.50;32.80
9167;DHT22;4618;48.818;9.088;2023-07-31T15:55:52;26.40;32.40
9167;DHT22;4618;48.818;9.088;2023-07-31T15:58:17;26.40;31.60
9167;DHT22;4618;48.818;9.088;2023-07-31T16:00:43;26.30;33.20
9167;DHT22;4618;48.818;9.088;2023-07-31T16:03:08;26.10;32.70
9167;DHT22;4618;48.818;9.088;2023-07-31T16:05:34;25.60;34.00
9167;DHT22;4618;48.818;9.088;2023-07-31T16:07:59;25.90;33.50
9167;DHT22;4618;48.818;9.088;2023-07-31T16:10:26;26.40;33.60
9167;DHT22;4618;48.818;9.088;2023-07-31T16:12:51;26.20;32.70
9167;DHT22;4618;48.818;9.088;2023-07-31T16:15:17;25.90;32.20
9167;DHT22;4618;48.818;9.088;2023-07-31T16:17:42;25.60;35.40
9167;DHT22;4618;48.818;9.088;2023-07-31T16:20:08;25.10;34.70
9167;DHT22;4618;48.818;9.088;2023-07-31T16:22:33;24.40;37.00